Time;durP1;ratioP1;P1;durP2;ratioP2;P2;SDS_P1;SDS_P2;PMS_P1;PMS_P2;Temp;Humidity;BMP_temperature;BMP_pressure;BME280_temperature;BME280_humidity;BME280_pressure;Samples;Min_cycle;Max_cycle;Signal;HPM_P1;HPM_P2
2020/12/08 00:01:06;;;;;;;59.38;27.80;;;4.30;93.30;;;;;;5005718;28;20053;-51
2020/12/08 00:03:32;;;;;;;52.08;28.65;;;4.40;93.20;;;;;;5021954;28;20183;-49
2020/12/08 00:05:57;;;;;;;58.13;28.77;;;4.30;93.20;;;;;;5007396;28;20041;-53
2020/12/08 00:08:23;;;;;;;49.72;27.35;;;4.40;93.30;;;;;;5022245;28;20056;-50
2020/12/08 00:11:16;;;;;;;51.63;27.73;;;4.40;93.30;;;;;;5013135;28;20103;-50
2020/12/08 00:13:46;;;;;;;54.15;27.52;;;4.40;93.20;;;;;;5021009;28;20395;-50
2020/12/08 00:16:13;;;;;;;53.03;28.02;;;4.40;93.10;;;;;;5015318;28;20735;-52
2020/12/08 00:18:40;;;;;;;51.15;28.27;;;4.30;93.20;;;;;;5015887;28;20476;-51
2020/12/08 00:21:28;;;;;;;49.35;26.75;;;4.30;93.20;;;;;;5009239;28;20056;-52
2020/12/08 00:24:14;;;;;;;51.38;26.85;;;4.30;93.30;;;;;;4993368;28;20084;-51
2020/12/08 00:26:41;;;;;;;44.80;26.08;;;4.30;93.40;;;;;;5011573;28;20038;-51
2020/12/08 00:29:11;;;;;;;45.83;26.90;;;4.30;93.40;;;;;;5014283;28;20052;-50
2020/12/08 00:31:57;;;;;;;49.33;27.50;;;4.40;93.20;;;;;;5000619;28;20049;-52
2020/12/08 00:34:23;;;;;;;47.65;26.00;;;4.40;93.30;;;;;;5026228;28;20048;-53
2020/12/08 00:36:49;;;;;;;47.08;27.55;;;4.30;93.30;;;;;;5016784;28;20096;-50
2020/12/08 00:39:34;;;;;;;48.95;27.50;;;4.40;93.30;;;;;;4999454;28;20562;-52
2020/12/08 00:42:00;;;;;;;45.13;26.63;;;4.40;93.30;;;;;;5010956;28;20125;-54
2020/12/08 00:44:46;;;;;;;47.10;26.75;;;4.40;93.30;;;;;;5016378;28;20045;-49
2020/12/08 00:47:12;;;;;;;45.30;26.10;;;4.30;93.40;;;;;;5024543;28;20414;-53
2020/12/08 00:49:38;;;;;;;45.25;26.08;;;4.30;93.40;;;;;;5023391;28;20046;-50
2020/12/08 00:52:03;;;;;;;47.45;25.27;;;4.30;93.50;;;;;;5010966;28;20037;-54
2020/12/08 00:54:31;;;;;;;48.80;25.77;;;4.30;93.40;;;;;;5022633;28;20041;-52
2020/12/08 00:57:20;;;;;;;43.78;25.13;;;4.30;93.30;;;;;;5000291;28;20460;-53
2020/12/08 00:59:47;;;;;;;43.47;24.85;;;4.40;93.20;;;;;;5022060;28;20612;-49
2020/12/08 01:02:19;;;;;;;51.45;26.10;;;4.20;93.30;;;;;;5019463;28;20073;-51
2020/12/08 01:04:45;;;;;;;45.30;24.42;;;4.20;93.40;;;;;;5008503;28;20041;-49
2020/12/08 01:07:15;;;;;;;47.55;25.95;;;4.20;93.60;;;;;;5020132;28;20041;-52
2020/12/08 01:10:00;;;;;;;46.00;25.00;;;4.20;93.30;;;;;;5006980;28;20045;-50
2020/12/08 01:12:26;;;;;;;39.08;23.98;;;4.20;93.00;;;;;;5009437;28;20053;-52
2020/12/08 01:15:12;;;;;;;41.00;23.05;;;4.10;93.20;;;;;;5006464;28;20065;-51
2020/12/08 01:17:58;;;;;;;39.10;22.50;;;4.00;93.20;;;;;;5000253;28;20388;-53
2020/12/08 01:20:24;;;;;;;43.10;23.88;;;4.00;93.30;;;;;;5013798;28;20053;-51
2020/12/08 01:23:10;;;;;;;42.28;24.02;;;3.90;93.20;;;;;;5006524;28;20101;-54
2020/12/08 01:25:37;;;;;;;37.22;23.02;;;3.90;93.20;;;;;;5030248;28;20038;-50
2020/12/08 01:28:04;;;;;;;41.50;23.85;;;3.80;93.10;;;;;;5014049;28;20046;-50
2020/12/08 01:30:29;;;;;;;37.78;22.60;;;3.80;93.20;;;;;;5020898;28;20053;-52
2020/12/08 01:33:17;;;;;;;36.55;22.35;;;3.70;93.20;;;;;;5017460;28;20108;-53
2020/12/08 01:35:44;;;;;;;38.08;22.67;;;3.70;93.30;;;;;;5014782;28;20037;-53
2020/12/08 01:38:30;;;;;;;34.13;20.92;;;3.70;93.30;;;;;;5018780;28;20418;-53
2020/12/08 01:40:58;;;;;;;31.67;20.33;;;3.60;93.20;;;;;;5009145;28;20125;-50
2020/12/08 01:43:52;;;;;;;40.97;23.10;;;3.60;93.20;;;;;;5002203;28;20534;-52
2020/12/08 01:46:19;;;;;;;38.35;23.13;;;3.60;93.20;;;;;;5017779;28;20042;-51
2020/12/08 01:48:46;;;;;;;39.65;22.90;;;3.50;93.50;;;;;;5021202;28;20108;-49
2020/12/08 01:51:13;;;;;;;40.53;23.55;;;3.60;93.40;;;;;;5015111;28;20124;-51
2020/12/08 01:53:59;;;;;;;39.08;23.48;;;3.60;93.40;;;;;;5003292;28;20054;-50
2020/12/08 01:56:25;;;;;;;36.70;21.80;;;3.60;93.20;;;;;;5030835;28;20509;-49
2020/12/08 01:58:53;;;;;;;37.42;21.80;;;3.50;93.20;;;;;;5016426;28;20407;-53
2020/12/08 02:01:20;;;;;;;40.75;24.17;;;3.50;93.40;;;;;;5017415;28;20113;-50
2020/12/08 02:03:49;;;;;;;33.67;21.95;;;3.50;93.30;;;;;;5012837;28;20137;-53
2020/12/08 02:06:14;;;;;;;37.05;23.15;;;3.50;93.20;;;;;;5006181;28;20486;-52
2020/12/08 02:08:40;;;;;;;32.03;20.50;;;3.40;93.30;;;;;;5027591;28;20037;-53
2020/12/08 02:11:07;;;;;;;35.33;22.63;;;3.40;93.30;;;;;;4997773;28;20045;-50
2020/12/08 02:13:53;;;;;;;37.65;23.75;;;3.40;93.40;;;;;;4999076;28;20041;-51
2020/12/08 02:16:20;;;;;;;41.20;24.05;;;3.40;93.70;;;;;;5013303;28;20112;-50
2020/12/08 02:19:07;;;;;;;39.10;23.88;;;3.50;93.40;;;;;;5000881;28;20542;-49
2020/12/08 02:21:53;;;;;;;31.55;20.48;;;3.50;93.50;;;;;;4997944;28;20113;-55
2020/12/08 02:24:20;;;;;;;38.33;23.88;;;3.50;93.00;;;;;;4987399;28;20057;-52
2020/12/08 02:26:46;;;;;;;35.42;22.30;;;3.50;92.80;;;;;;5030570;28;20053;-52
2020/12/08 02:29:13;;;;;;;39.88;22.85;;;3.30;93.10;;;;;;5014614;28;20045;-54
2020/12/08 02:31:39;;;;;;;34.38;21.40;;;3.30;93.00;;;;;;4998209;28;20042;-52
2020/12/08 02:34:06;;;;;;;33.63;21.65;;;3.20;93.00;;;;;;5023851;28;20042;-50
2020/12/08 02:36:57;;;;;;;40.70;22.27;;;3.20;93.10;;;;;;5008054;28;20585;-51
2020/12/08 02:39:25;;;;;;;36.20;22.48;;;3.10;93.20;;;;;;5021658;28;20045;-50
2020/12/08 02:41:51;;;;;;;33.17;20.85;;;3.10;93.20;;;;;;5021131;28;20120;-49
2020/12/08 02:44:37;;;;;;;33.50;20.73;;;3.10;93.10;;;;;;5010971;28;20053;-52
2020/12/08 02:47:23;;;;;;;38.13;21.95;;;3.00;93.00;;;;;;5014366;28;20127;-52
2020/12/08 02:50:08;;;;;;;44.60;23.58;;;3.00;93.10;;;;;;4997921;28;20064;-50
2020/12/08 02:52:34;;;;;;;33.95;21.45;;;3.00;92.90;;;;;;5013970;28;20487;-50
2020/12/08 02:55:20;;;;;;;36.25;22.08;;;2.90;92.70;;;;;;5004769;28;20395;-50
2020/12/08 02:57:46;;;;;;;36.60;22.25;;;2.80;92.90;;;;;;5010113;28;20060;-50
2020/12/08 03:00:13;;;;;;;44.58;25.38;;;2.80;93.10;;;;;;5008532;28;20499;-50
2020/12/08 03:02:39;;;;;;;44.25;26.60;;;2.90;93.00;;;;;;5021652;28;20069;-53
2020/12/08 03:05:04;;;;;;;36.97;22.63;;;2.90;93.20;;;;;;5023730;28;20049;-50
2020/12/08 03:07:30;;;;;;;37.08;22.48;;;2.90;93.10;;;;;;5018909;28;20525;-52
2020/12/08 03:09:56;;;;;;;39.08;22.48;;;2.80;93.40;;;;;;5020119;28;20513;-52
2020/12/08 03:12:22;;;;;;;45.20;27.48;;;2.80;93.10;;;;;;5013662;28;20553;-51
2020/12/08 03:14:47;;;;;;;35.08;22.75;;;2.80;93.00;;;;;;5013601;28;20630;-52
2020/12/08 03:17:34;;;;;;;33.83;21.40;;;2.80;92.90;;;;;;5005410;28;20442;-52
2020/12/08 03:20:24;;;;;;;40.47;23.50;;;2.70;92.90;;;;;;5003199;28;20052;-49
2020/12/08 03:22:50;;;;;;;45.38;27.27;;;2.70;93.10;;;;;;5016573;28;20045;-50
2020/12/08 03:25:35;;;;;;;37.65;23.20;;;2.70;93.30;;;;;;5022785;28;20037;-52
2020/12/08 03:28:01;;;;;;;35.85;23.33;;;2.70;93.20;;;;;;5023254;28;20056;-49
2020/12/08 03:30:26;;;;;;;32.13;19.45;;;2.70;93.00;;;;;;5022285;28;20383;-52
2020/12/08 03:33:14;;;;;;;39.85;23.17;;;2.70;92.90;;;;;;5013819;28;20073;-53
2020/12/08 03:35:40;;;;;;;37.47;22.58;;;2.70;92.70;;;;;;5014456;28;20461;-49
2020/12/08 03:38:06;;;;;;;39.63;23.80;;;2.70;92.40;;;;;;4996212;28;20091;-49
2020/12/08 03:40:51;;;;;;;44.05;25.02;;;2.60;92.50;;;;;;5012646;28;20056;-50
2020/12/08 03:43:17;;;;;;;41.60;24.08;;;2.50;92.80;;;;;;5012127;28;20046;-49
2020/12/08 03:45:43;;;;;;;34.65;21.98;;;2.50;92.90;;;;;;4999324;28;20045;-53
2020/12/08 03:48:10;;;;;;;38.92;22.55;;;2.50;92.90;;;;;;4989850;28;20053;-52
2020/12/08 03:50:56;;;;;;;40.15;23.35;;;2.50;92.90;;;;;;4993467;28;20050;-49
2020/12/08 03:53:24;;;;;;;37.47;23.83;;;2.50;93.00;;;;;;5021742;28;20109;-49
2020/12/08 03:55:50;;;;;;;40.63;22.92;;;2.40;92.90;;;;;;5006019;28;20088;-49
2020/12/08 03:58:37;;;;;;;42.17;24.95;;;2.50;93.00;;;;;;5009269;28;20065;-51
2020/12/08 04:01:23;;;;;;;37.05;23.27;;;2.40;93.00;;;;;;5006002;28;20100;-54
2020/12/08 04:03:50;;;;;;;35.92;22.73;;;2.40;93.10;;;;;;5015087;28;20042;-53
2020/12/08 04:06:36;;;;;;;38.10;22.90;;;2.40;93.10;;;;;;4997214;28;20073;-52
2020/12/08 04:09:01;;;;;;;42.72;24.52;;;2.40;93.00;;;;;;5022424;28;20482;-53
2020/12/08 04:11:48;;;;;;;39.63;24.02;;;2.40;92.90;;;;;;5003578;28;20053;-50
2020/12/08 04:14:36;;;;;;;40.15;24.40;;;2.40;93.10;;;;;;5007865;28;20056;-53
2020/12/08 04:17:02;;;;;;;37.28;22.88;;;2.40;93.10;;;;;;4986735;28;20521;-52
2020/12/08 04:19:28;;;;;;;34.30;22.30;;;2.40;92.90;;;;;;5024726;28;20033;-52
2020/12/08 04:22:15;;;;;;;42.78;23.30;;;2.30;92.80;;;;;;5001622;28;20062;-52
2020/12/08 04:24:41;;;;;;;35.83;22.60;;;2.30;92.80;;;;;;5022164;28;20069;-52
2020/12/08 04:27:07;;;;;;;36.97;23.92;;;2.20;92.80;;;;;;5015355;28;20080;-51
2020/12/08 04:29:53;;;;;;;40.53;24.05;;;2.20;92.80;;;;;;5000584;28;20041;-55
2020/12/08 04:32:39;;;;;;;47.08;25.15;;;2.20;92.40;;;;;;4995050;28;20128;-54
2020/12/08 04:35:05;;;;;;;44.42;24.98;;;2.20;92.50;;;;;;5003776;28;20057;-54
2020/12/08 04:37:31;;;;;;;36.78;23.33;;;2.10;92.70;;;;;;5020599;28;20065;-54
2020/12/08 04:39:57;;;;;;;41.22;25.13;;;2.10;92.90;;;;;;5019527;28;20041;-53
2020/12/08 04:42:22;;;;;;;41.38;25.55;;;2.10;92.90;;;;;;5020057;28;20041;-54
2020/12/08 04:45:08;;;;;;;41.67;25.05;;;2.10;92.90;;;;;;5004814;28;20060;-53
2020/12/08 04:48:01;;;;;;;43.67;25.92;;;2.10;93.00;;;;;;5005004;28;20042;-52
2020/12/08 04:50:27;;;;;;;45.45;26.77;;;2.20;92.80;;;;;;5018283;28;20462;-51
2020/12/08 04:52:53;;;;;;;44.55;27.27;;;2.30;92.70;;;;;;5033536;28;20061;-53
2020/12/08 04:55:19;;;;;;;42.10;26.02;;;2.40;92.80;;;;;;5029103;28;20038;-53
2020/12/08 04:57:44;;;;;;;44.17;26.00;;;2.30;92.70;;;;;;5022989;28;20038;-51
2020/12/08 05:00:12;;;;;;;41.75;25.13;;;2.30;92.40;;;;;;5023505;28;20514;-50
2020/12/08 05:02:52;;;;;;;45.25;26.90;;;2.30;92.70;;;;;;5009085;28;20073;-51
2020/12/08 05:05:19;;;;;;;48.13;27.88;;;2.20;92.60;;;;;;5022623;28;20048;-54
2020/12/08 05:08:13;;;;;;;41.63;25.30;;;2.20;92.80;;;;;;5005511;28;20128;-52
2020/12/08 05:10:39;;;;;;;46.70;25.80;;;2.20;92.80;;;;;;5019942;28;20052;-50
2020/12/08 05:13:25;;;;;;;45.30;25.25;;;2.30;92.90;;;;;;4999498;28;20449;-53
2020/12/08 05:16:19;;;;;;;42.40;25.40;;;2.30;92.80;;;;;;5020054;28;20375;-52
2020/12/08 05:18:45;;;;;;;47.38;26.98;;;2.40;92.80;;;;;;5012464;28;20052;-54
2020/12/08 05:21:11;;;;;;;48.28;27.58;;;2.30;92.60;;;;;;5022282;28;20501;-54
2020/12/08 05:23:58;;;;;;;44.63;25.30;;;2.30;92.70;;;;;;5015774;28;20473;-54
2020/12/08 05:26:27;;;;;;;44.97;25.77;;;2.20;92.80;;;;;;5028073;28;20049;-50
2020/12/08 05:29:00;;;;;;;44.20;23.70;;;2.30;92.80;;;;;;5026136;28;20044;-52
2020/12/08 05:31:46;;;;;;;;;;;2.20;92.60;;;;;;5011954;28;20545;-53
2020/12/08 05:34:17;;;;;;;40.85;25.08;;;2.20;92.70;;;;;;5017476;28;19921;-52
2020/12/08 05:36:47;;;;;;;39.78;23.65;;;2.20;92.90;;;;;;5013553;28;20049;-52
2020/12/08 05:39:17;;;;;;;50.40;27.65;;;2.20;92.60;;;;;;5022873;28;20109;-53
2020/12/08 05:41:44;;;;;;;43.42;25.58;;;2.30;92.80;;;;;;5018291;28;20042;-53
2020/12/08 05:44:18;;;;;;;41.30;25.50;;;2.20;92.80;;;;;;5008252;28;20132;-52
2020/12/08 05:47:04;;;;;;;41.33;25.40;;;2.10;92.80;;;;;;5016637;28;20084;-53
2020/12/08 05:50:02;;;;;;;43.83;25.77;;;2.00;93.00;;;;;;4998313;28;20050;-51
2020/12/08 05:52:32;;;;;;;40.72;24.08;;;2.10;93.00;;;;;;5019381;28;20041;-53
2020/12/08 05:55:34;;;;;;;44.13;25.00;;;1.90;93.00;;;;;;5005976;28;20033;-52
2020/12/08 05:58:10;;;;;;;40.10;24.80;;;2.00;93.20;;;;;;4957673;28;20047;-54
2020/12/08 06:01:22;;;;;;;41.45;24.55;;;2.00;93.00;;;;;;5007495;28;20460;-50
2020/12/08 06:03:55;;;;;;;43.38;24.80;;;1.90;93.00;;;;;;5016329;28;20042;-50
2020/12/08 06:06:21;;;;;;;42.63;24.20;;;1.90;92.90;;;;;;5005419;28;20132;-50
2020/12/08 06:09:07;;;;;;;41.45;23.25;;;1.80;92.80;;;;;;5006892;28;20107;-53
2020/12/08 06:11:53;;;;;;;42.60;24.90;;;1.80;92.90;;;;;;4998490;28;20125;-52
2020/12/08 06:14:30;;;;;;;39.15;23.08;;;1.70;93.10;;;;;;5014679;28;20467;-52
2020/12/08 06:17:15;;;;;;;40.28;24.45;;;1.70;93.20;;;;;;5003907;28;20640;-53
2020/12/08 06:20:01;;;;;;;37.45;21.83;;;1.70;93.20;;;;;;5006384;28;20049;-53
2020/12/08 06:22:27;;;;;;;42.47;24.35;;;1.70;93.10;;;;;;5019317;28;20045;-52
2020/12/08 06:24:54;;;;;;;42.38;24.13;;;1.70;93.20;;;;;;5016876;28;20049;-54
2020/12/08 06:27:23;;;;;;;36.45;22.75;;;1.80;93.30;;;;;;5024141;28;20096;-51
2020/12/08 06:29:53;;;;;;;40.10;23.52;;;1.80;92.80;;;;;;5011293;28;20040;-52
2020/12/08 06:32:30;;;;;;;40.92;24.42;;;1.80;92.80;;;;;;5013808;28;20060;-53
2020/12/08 06:35:10;;;;;;;39.15;23.00;;;1.80;92.80;;;;;;5021419;28;20384;-53
2020/12/08 06:37:41;;;;;;;45.47;25.20;;;1.80;92.90;;;;;;5022396;28;20045;-53
2020/12/08 06:40:27;;;;;;;42.88;24.50;;;1.80;93.00;;;;;;4999144;28;20578;-53
2020/12/08 06:42:54;;;;;;;39.03;23.13;;;1.80;93.10;;;;;;5018301;28;20153;-53
2020/12/08 06:45:40;;;;;;;42.25;23.65;;;1.80;93.00;;;;;;5000282;28;20123;-53
2020/12/08 06:48:26;;;;;;;47.35;23.83;;;1.80;93.00;;;;;;5001171;28;20128;-53
2020/12/08 06:50:52;;;;;;;38.45;23.27;;;1.80;93.10;;;;;;5015578;28;20041;-53
2020/12/08 06:53:18;;;;;;;41.70;24.63;;;1.90;93.10;;;;;;5013808;28;20041;-53
2020/12/08 06:55:48;;;;;;;43.40;24.05;;;1.80;93.20;;;;;;4999230;28;20616;-54
2020/12/08 06:58:15;;;;;;;45.03;23.92;;;1.90;93.20;;;;;;5012815;28;20414;-53
2020/12/08 07:01:07;;;;;;;39.78;23.80;;;1.90;93.20;;;;;;4998292;28;20045;-51
2020/12/08 07:03:37;;;;;;;44.95;25.85;;;2.00;93.30;;;;;;4995697;28;20498;-53
2020/12/08 07:06:05;;;;;;;42.22;24.88;;;2.00;93.40;;;;;;5024684;28;20038;-49
2020/12/08 07:08:51;;;;;;;44.60;24.08;;;2.00;93.40;;;;;;4997887;28;20184;-51
2020/12/08 07:11:21;;;;;;;42.83;24.67;;;2.10;93.50;;;;;;5014552;28;20046;-49
2020/12/08 07:14:07;;;;;;;41.65;23.77;;;2.20;93.50;;;;;;5002014;28;20041;-50
2020/12/08 07:16:52;;;;;;;38.65;24.02;;;2.30;93.40;;;;;;4999927;28;20064;-49
2020/12/08 07:19:18;;;;;;;38.70;23.75;;;2.30;93.30;;;;;;5027446;28;20049;-50
2020/12/08 07:21:54;;;;;;;38.10;22.77;;;2.30;93.30;;;;;;5023382;28;20049;-51
2020/12/08 07:24:24;;;;;;;40.42;24.33;;;2.30;93.40;;;;;;5013724;28;20136;-52
2020/12/08 07:26:58;;;;;;;42.63;24.48;;;2.40;93.20;;;;;;5018423;28;20410;-49
2020/12/08 07:29:24;;;;;;;45.20;26.33;;;2.40;93.20;;;;;;5005191;28;20526;-50
2020/12/08 07:32:10;;;;;;;49.90;32.45;;;2.40;93.30;;;;;;4999350;28;20049;-52
2020/12/08 07:34:35;;;;;;;41.38;24.83;;;2.50;93.30;;;;;;4995625;28;20046;-52
2020/12/08 07:37:01;;;;;;;43.72;24.25;;;2.60;93.30;;;;;;5021840;28;20072;-50
2020/12/08 07:39:46;;;;;;;39.75;24.13;;;2.60;93.20;;;;;;5009612;28;20504;-53
2020/12/08 07:42:12;;;;;;;41.42;24.50;;;2.60;93.30;;;;;;5015276;28;20042;-50
2020/12/08 07:44:38;;;;;;;52.10;24.27;;;2.60;93.30;;;;;;5016115;28;20336;-50
2020/12/08 07:47:12;;;;;;;52.45;24.33;;;2.60;93.30;;;;;;5018125;28;20044;-53
2020/12/08 07:49:57;;;;;;;41.05;25.13;;;2.60;93.30;;;;;;5013929;28;20131;-52
2020/12/08 07:52:23;;;;;;;42.00;25.20;;;2.70;93.20;;;;;;5011249;28;20084;-52
2020/12/08 07:54:48;;;;;;;40.88;24.30;;;2.70;93.20;;;;;;5029153;28;20048;-53
2020/12/08 07:57:34;;;;;;;41.78;24.75;;;2.70;93.30;;;;;;5008358;28;20083;-49
2020/12/08 07:59:59;;;;;;;43.65;25.13;;;2.70;93.30;;;;;;5021130;28;20048;-50
2020/12/08 08:02:25;;;;;;;39.08;24.63;;;2.80;93.30;;;;;;5022130;28;20038;-52
2020/12/08 08:04:51;;;;;;;38.38;23.38;;;2.80;93.30;;;;;;5017252;28;20140;-51
2020/12/08 08:07:16;;;;;;;40.63;23.73;;;2.90;93.30;;;;;;5016851;28;20037;-50
2020/12/08 08:10:02;;;;;;;42.58;24.83;;;2.80;93.30;;;;;;5007087;28;20065;-52
2020/12/08 08:12:28;;;;;;;38.53;23.48;;;2.90;93.10;;;;;;5019449;28;20038;-50
2020/12/08 08:14:55;;;;;;;40.17;22.67;;;2.90;93.00;;;;;;5019197;28;20382;-52
2020/12/08 08:17:40;;;;;;;36.67;22.52;;;2.90;92.80;;;;;;5013985;28;20413;-50
2020/12/08 08:20:26;;;;;;;47.97;25.92;;;2.90;92.90;;;;;;5008293;28;20037;-52
2020/12/08 08:23:11;;;;;;;40.22;24.38;;;2.90;93.00;;;;;;5011247;28;20119;-50
2020/12/08 08:25:37;;;;;;;44.65;24.33;;;2.90;93.00;;;;;;5016333;28;20037;-49
2020/12/08 08:28:03;;;;;;;43.17;24.95;;;3.00;93.20;;;;;;5019391;28;20042;-52
2020/12/08 08:30:29;;;;;;;41.28;23.70;;;3.00;93.10;;;;;;5024850;28;20529;-50
2020/12/08 08:32:54;;;;;;;44.47;24.90;;;3.00;93.30;;;;;;5016697;28;20045;-50
2020/12/08 08:35:21;;;;;;;37.42;23.88;;;3.00;93.30;;;;;;5018463;28;20057;-51
2020/12/08 08:38:07;;;;;;;45.63;25.13;;;3.10;93.20;;;;;;5014837;28;20076;-51
2020/12/08 08:40:54;;;;;;;43.58;23.98;;;3.20;93.10;;;;;;5009876;28;20052;-51
2020/12/08 08:43:20;;;;;;;42.30;24.67;;;3.20;93.00;;;;;;5021564;28;20474;-52
2020/12/08 08:45:45;;;;;;;45.55;25.55;;;3.20;93.00;;;;;;5032341;28;20095;-51
2020/12/08 08:48:11;;;;;;;39.78;24.35;;;3.30;92.80;;;;;;5030945;28;20072;-52
2020/12/08 08:50:37;;;;;;;46.55;27.10;;;3.20;93.00;;;;;;5024741;28;20049;-53
2020/12/08 08:53:02;;;;;;;38.60;23.20;;;3.30;92.80;;;;;;5015734;28;20683;-50
2020/12/08 08:55:28;;;;;;;43.25;24.80;;;3.40;92.70;;;;;;4994332;28;20997;-52
2020/12/08 08:57:54;;;;;;;41.08;24.83;;;3.30;92.90;;;;;;5010247;28;20423;-50
2020/12/08 09:00:20;;;;;;;44.83;25.92;;;3.30;92.80;;;;;;5017479;28;20041;-53
2020/12/08 09:03:06;;;;;;;45.50;24.50;;;3.40;92.80;;;;;;5002376;28;20072;-50
2020/12/08 09:05:53;;;;;;;43.13;24.55;;;3.40;92.80;;;;;;4988719;28;20093;-53
2020/12/08 09:08:18;;;;;;;45.08;25.95;;;3.40;92.70;;;;;;5028486;28;20048;-51
2020/12/08 09:10:44;;;;;;;39.70;24.23;;;3.40;92.80;;;;;;5019730;28;20041;-50
2020/12/08 09:13:10;;;;;;;44.55;26.45;;;3.40;92.90;;;;;;5025035;28;20053;-51
2020/12/08 09:15:35;;;;;;;44.42;25.48;;;3.50;92.80;;;;;;5016781;28;20056;-50
2020/12/08 09:18:21;;;;;;;43.60;25.33;;;3.50;92.90;;;;;;5001466;28;20132;-53
2020/12/08 09:21:07;;;;;;;41.00;24.65;;;3.50;92.70;;;;;;5001468;28;20073;-50
2020/12/08 09:23:32;;;;;;;42.58;24.88;;;3.40;93.00;;;;;;5005836;28;20123;-50
2020/12/08 09:26:18;;;;;;;44.03;25.45;;;3.50;93.00;;;;;;5009656;28;20498;-50
2020/12/08 09:28:44;;;;;;;44.38;25.30;;;3.50;93.10;;;;;;5023107;28;20046;-50
2020/12/08 09:31:30;;;;;;;48.42;27.30;;;3.40;93.10;;;;;;5017710;28;20059;-50
2020/12/08 09:33:55;;;;;;;42.45;25.38;;;3.50;93.10;;;;;;5021992;28;20490;-51
2020/12/08 09:36:41;;;;;;;46.47;25.98;;;3.50;93.20;;;;;;5006254;28;20077;-50
2020/12/08 09:39:26;;;;;;;43.30;25.25;;;3.50;93.30;;;;;;5010489;28;20041;-50
2020/12/08 09:41:52;;;;;;;43.58;26.17;;;3.50;93.20;;;;;;5020885;28;20084;-50
2020/12/08 09:44:18;;;;;;;42.30;24.67;;;3.50;93.30;;;;;;5015514;28;20133;-50
2020/12/08 09:46:44;;;;;;;45.83;26.02;;;3.60;93.20;;;;;;5022533;28;20048;-50
2020/12/08 09:49:11;;;;;;;43.88;24.25;;;3.60;93.00;;;;;;5018623;28;20050;-50
2020/12/08 09:51:37;;;;;;;41.42;24.83;;;3.70;92.90;;;;;;5024331;28;20037;-50
2020/12/08 09:54:05;;;;;;;48.38;27.13;;;3.70;92.90;;;;;;5023062;28;20038;-50
2020/12/08 09:56:30;;;;;;;45.38;27.98;;;3.70;93.00;;;;;;5024193;28;20087;-50
2020/12/08 09:58:56;;;;;;;39.80;24.17;;;3.60;93.10;;;;;;5024415;28;20072;-50
2020/12/08 10:01:42;;;;;;;41.90;25.05;;;3.70;93.20;;;;;;5003747;28;20053;-50
2020/12/08 10:04:08;;;;;;;48.40;25.20;;;3.80;92.80;;;;;;5027568;28;20096;-50
2020/12/08 10:06:34;;;;;;;43.03;24.85;;;3.70;92.80;;;;;;5028878;28;20095;-51
2020/12/08 10:09:19;;;;;;;44.22;26.38;;;3.80;92.70;;;;;;5010310;28;20412;-51
2020/12/08 10:11:45;;;;;;;49.20;26.60;;;3.80;92.80;;;;;;5010823;28;20037;-50
2020/12/08 10:14:10;;;;;;;47.55;26.90;;;3.80;92.90;;;;;;5028068;28;20064;-50
2020/12/08 10:16:36;;;;;;;41.38;25.27;;;3.90;92.60;;;;;;5018907;28;20095;-51
2020/12/08 10:19:21;;;;;;;44.67;25.67;;;3.90;92.30;;;;;;5009910;28;20054;-50
2020/12/08 10:22:08;;;;;;;44.28;25.10;;;3.90;92.40;;;;;;5004211;28;20045;-50
2020/12/08 10:24:33;;;;;;;47.90;26.77;;;3.90;92.60;;;;;;5021714;28;20048;-51
2020/12/08 10:26:59;;;;;;;46.88;25.52;;;3.80;92.80;;;;;;5021823;28;20108;-50
2020/12/08 10:29:25;;;;;;;44.55;24.63;;;3.90;92.70;;;;;;5024837;28;20102;-53
2020/12/08 10:32:11;;;;;;;47.17;27.38;;;3.90;92.90;;;;;;5005931;28;20046;-52
2020/12/08 10:34:37;;;;;;;46.05;26.60;;;3.90;92.70;;;;;;5023146;28;20048;-50
2020/12/08 10:37:02;;;;;;;46.55;26.88;;;3.90;92.90;;;;;;5016842;28;20038;-50
2020/12/08 10:39:28;;;;;;;41.65;23.67;;;3.90;93.00;;;;;;5012741;28;20038;-50
2020/12/08 10:41:55;;;;;;;47.40;27.25;;;4.00;92.90;;;;;;5024928;28;20091;-50
2020/12/08 10:44:21;;;;;;;43.08;26.58;;;3.60;92.70;;;;;;5015182;28;20531;-51
2020/12/08 10:46:49;;;;;;;44.13;25.77;;;4.00;92.90;;;;;;5018104;28;20046;-51
2020/12/08 10:49:16;;;;;;;47.67;25.95;;;3.90;93.00;;;;;;5021710;28;20046;-51
2020/12/08 10:52:02;;;;;;;41.38;25.25;;;4.00;93.10;;;;;;5012796;28;20046;-50
2020/12/08 10:54:27;;;;;;;43.35;26.10;;;4.00;92.80;;;;;;5018376;28;20053;-51
2020/12/08 10:56:53;;;;;;;43.10;25.83;;;4.00;92.90;;;;;;5021698;28;20037;-52
2020/12/08 10:59:39;;;;;;;46.45;27.23;;;4.00;93.10;;;;;;5016213;28;20046;-50
2020/12/08 11:02:05;;;;;;;41.92;25.05;;;4.10;93.10;;;;;;5030622;28;20054;-50
2020/12/08 11:04:30;;;;;;;43.85;25.35;;;4.10;93.10;;;;;;5024755;28;20493;-50
2020/12/08 11:07:16;;;;;;;41.20;25.00;;;4.10;93.10;;;;;;5002885;28;20049;-50
2020/12/08 11:09:43;;;;;;;42.25;25.33;;;4.10;93.00;;;;;;5022428;28;20039;-53
2020/12/08 11:12:10;;;;;;;44.72;25.80;;;4.20;92.80;;;;;;5025233;28;20103;-50
2020/12/08 11:14:55;;;;;;;48.95;27.23;;;4.20;92.80;;;;;;5008407;28;20049;-52
2020/12/08 11:17:21;;;;;;;47.00;26.08;;;4.20;92.90;;;;;;5018257;28;20056;-50
2020/12/08 11:20:07;;;;;;;46.75;26.13;;;4.20;92.90;;;;;;5007280;28;20045;-53
2020/12/08 11:22:32;;;;;;;46.80;27.35;;;4.20;93.00;;;;;;5013099;28;20125;-54
2020/12/08 11:24:59;;;;;;;44.58;27.42;;;4.20;93.10;;;;;;5016120;28;20045;-50
2020/12/08 11:27:45;;;;;;;46.75;27.45;;;4.30;93.00;;;;;;5008256;28;20506;-54
2020/12/08 11:30:11;;;;;;;44.92;26.40;;;4.30;93.00;;;;;;5018380;28;20042;-51
2020/12/08 11:32:36;;;;;;;45.53;25.77;;;4.50;92.50;;;;;;5030022;28;20493;-52
2020/12/08 11:35:02;;;;;;;39.53;24.20;;;4.40;92.30;;;;;;5023681;28;20418;-52
2020/12/08 11:37:29;;;;;;;44.45;26.83;;;4.50;92.40;;;;;;5014845;28;20404;-54
2020/12/08 11:39:54;;;;;;;43.55;24.88;;;4.40;92.50;;;;;;5023706;28;20042;-50
2020/12/08 11:42:40;;;;;;;40.38;24.92;;;4.50;92.50;;;;;;5002016;28;20591;-53
2020/12/08 11:45:05;;;;;;;41.00;24.88;;;4.50;92.30;;;;;;5018769;28;20040;-53
2020/12/08 11:47:31;;;;;;;46.88;25.65;;;4.50;92.30;;;;;;5017154;28;20112;-54
2020/12/08 11:49:56;;;;;;;40.72;25.00;;;4.50;92.50;;;;;;5029973;28;20448;-53
2020/12/08 11:52:42;;;;;;;44.95;26.00;;;4.60;92.60;;;;;;5005812;28;20055;-52
2020/12/08 11:55:28;;;;;;;39.00;22.85;;;4.60;92.30;;;;;;5002120;28;20085;-51
2020/12/08 11:57:53;;;;;;;40.47;24.17;;;4.70;92.00;;;;;;5025158;28;20065;-52
2020/12/08 12:00:19;;;;;;;42.35;24.45;;;4.70;92.10;;;;;;5020945;28;20084;-50
2020/12/08 12:02:45;;;;;;;40.22;24.70;;;4.70;92.10;;;;;;5020473;28;20041;-53
2020/12/08 12:05:10;;;;;;;41.13;24.83;;;4.70;91.90;;;;;;5026143;28;20041;-51
2020/12/08 12:07:56;;;;;;;42.38;24.38;;;4.70;92.10;;;;;;5007256;28;20179;-50
2020/12/08 12:10:21;;;;;;;42.80;24.90;;;4.80;91.70;;;;;;5026759;28;20054;-53
2020/12/08 12:12:47;;;;;;;41.47;24.23;;;4.70;92.00;;;;;;5016003;28;20041;-54
2020/12/08 12:15:13;;;;;;;41.22;24.80;;;4.80;92.00;;;;;;5013854;28;20060;-53
2020/12/08 12:17:58;;;;;;;39.67;23.90;;;4.80;91.80;;;;;;5004690;28;20053;-52
2020/12/08 12:20:44;;;;;;;46.22;24.40;;;4.90;91.50;;;;;;4998614;28;20041;-53
2020/12/08 12:23:30;;;;;;;36.55;21.50;;;4.90;91.50;;;;;;5009305;28;20052;-52
2020/12/08 12:25:56;;;;;;;39.30;23.75;;;4.80;91.70;;;;;;5011417;28;20065;-50
2020/12/08 12:28:21;;;;;;;39.08;24.20;;;4.90;91.10;;;;;;5021076;28;20065;-55
2020/12/08 12:30:47;;;;;;;39.83;24.20;;;4.80;91.50;;;;;;5029561;28;20057;-49
2020/12/08 12:33:13;;;;;;;38.60;23.70;;;4.90;91.60;;;;;;5029475;28;20057;-50
2020/12/08 12:35:59;;;;;;;38.97;23.75;;;4.90;91.30;;;;;;5006287;28;20104;-50
2020/12/08 12:38:24;;;;;;;42.90;25.48;;;4.80;91.60;;;;;;5023763;28;20045;-49
2020/12/08 12:40:50;;;;;;;36.47;24.20;;;4.90;91.80;;;;;;5026794;28;20033;-48
2020/12/08 12:43:16;;;;;;;39.53;24.77;;;5.00;91.20;;;;;;5020144;28;20117;-48
2020/12/08 12:45:42;;;;;;;42.33;24.35;;;4.90;91.50;;;;;;5023043;28;20409;-51
2020/12/08 12:48:27;;;;;;;40.50;23.63;;;4.90;91.80;;;;;;5015648;28;20463;-49
2020/12/08 12:50:53;;;;;;;42.72;25.95;;;4.90;91.80;;;;;;5030029;28;20095;-51
2020/12/08 12:53:18;;;;;;;38.92;24.77;;;4.90;92.00;;;;;;5016603;28;20038;-48
2020/12/08 12:55:44;;;;;;;38.78;23.60;;;4.90;92.10;;;;;;5017624;28;20045;-52
2020/12/08 12:58:29;;;;;;;37.08;23.10;;;4.90;92.00;;;;;;5011295;28;20049;-49
2020/12/08 13:00:55;;;;;;;39.15;24.05;;;5.00;91.60;;;;;;5024345;28;20401;-51
2020/12/08 13:03:20;;;;;;;39.90;24.42;;;5.00;92.10;;;;;;5019211;28;20070;-50
2020/12/08 13:06:11;;;;;;;42.72;24.00;;;5.00;91.90;;;;;;5003591;28;20054;-51
2020/12/08 13:08:56;;;;;;;39.85;23.35;;;5.20;92.00;;;;;;5020874;28;20047;-50